Terminal Aerodrome Forecast
Issued by NWS

Home | Current Version | Previous Version | Text Only | Print | Product List | Glossary On
Versions: 1 2 3 4 5 6 7 8 9 10 11 12 13
491
FTUS45 KRIW 202338
TAFCPR
TAF
KCPR 202338Z 2100/2124 11014G20KT P6SM VCSH SCT050 BKN080
     FM210500 12014G20KT 6SM -RA SCT015 OVC030
     FM211400 VRB06KT 6SM -RA SCT015 OVC030=

USA.gov is the U.S. government's official web portal to all federal, state and local government web resources and services.